sensor_id;sensor_type;location;lat;lon;timestamp;pressure;altitude;pressure_sealevel;temperature;humidity
6506;BME280;3286;49.858;8.768;2023-03-23T00:02:19;98392.69;;;15.89;39.18
6506;BME280;3286;49.858;8.768;2023-03-23T00:04:50;98386.28;;;15.56;40.26
6506;BME280;3286;49.858;8.768;2023-03-23T00:07:16;98382.06;;;16.02;39.35
6506;BME280;3286;49.858;8.768;2023-03-23T00:09:46;98386.13;;;16.18;38.66
6506;BME280;3286;49.858;8.768;2023-03-23T00:12:18;98384.09;;;15.93;38.33
6506;BME280;3286;49.858;8.768;2023-03-23T00:14:45;98381.00;;;15.63;39.66
6506;BME280;3286;49.858;8.768;2023-03-23T00:17:12;98378.97;;;15.72;39.41
6506;BME280;3286;49.858;8.768;2023-03-23T00:19:42;98376.91;;;16.01;39.12
6506;BME280;3286;49.858;8.768;2023-03-23T00:22:15;98370.34;;;15.83;39.43
6506;BME280;3286;49.858;8.768;2023-03-23T00:24:42;98382.22;;;15.87;39.51
6506;BME280;3286;49.858;8.768;2023-03-23T00:27:10;98376.94;;;15.94;39.12
6506;BME280;3286;49.858;8.768;2023-03-23T00:29:40;98376.06;;;15.87;39.11
6506;BME280;3286;49.858;8.768;2023-03-23T00:32:07;98370.34;;;15.90;39.26
6506;BME280;3286;49.858;8.768;2023-03-23T00:34:38;98375.81;;;15.41;40.32
6506;BME280;3286;49.858;8.768;2023-03-23T00:37:05;98367.88;;;15.55;40.10
6506;BME280;3286;49.858;8.768;2023-03-23T00:39:34;98364.22;;;16.03;39.00
6506;BME280;3286;49.858;8.768;2023-03-23T00:42:02;98360.94;;;16.14;39.06
6506;BME280;3286;49.858;8.768;2023-03-23T00:44:30;98348.25;;;15.89;39.72
6506;BME280;3286;49.858;8.768;2023-03-23T00:46:57;98352.53;;;15.57;40.32
6506;BME280;3286;49.858;8.768;2023-03-23T00:49:25;98348.63;;;15.66;40.19
6506;BME280;3286;49.858;8.768;2023-03-23T00:51:53;98356.81;;;15.51;39.71
6506;BME280;3286;49.858;8.768;2023-03-23T00:54:20;98359.28;;;15.79;39.47
6506;BME280;3286;49.858;8.768;2023-03-23T00:56:49;98350.28;;;15.74;39.18
6506;BME280;3286;49.858;8.768;2023-03-23T00:59:16;98356.59;;;15.79;39.52
6506;BME280;3286;49.858;8.768;2023-03-23T01:01:43;98353.53;;;15.62;39.75
6506;BME280;3286;49.858;8.768;2023-03-23T01:04:09;98354.38;;;15.63;39.74
6506;BME280;3286;49.858;8.768;2023-03-23T01:06:39;98351.91;;;16.08;38.98
6506;BME280;3286;49.858;8.768;2023-03-23T01:09:06;98358.66;;;15.64;39.63
6506;BME280;3286;49.858;8.768;2023-03-23T01:11:34;98347.41;;;15.75;39.34
6506;BME280;3286;49.858;8.768;2023-03-23T01:14:02;98340.66;;;16.00;38.66
6506;BME280;3286;49.858;8.768;2023-03-23T01:16:28;98353.13;;;15.39;39.39
6506;BME280;3286;49.858;8.768;2023-03-23T01:18:55;98343.31;;;15.86;38.20
6506;BME280;3286;49.858;8.768;2023-03-23T01:21:22;98336.56;;;15.90;38.81
6506;BME280;3286;49.858;8.768;2023-03-23T01:23:50;98344.13;;;16.14;37.73
6506;BME280;3286;49.858;8.768;2023-03-23T01:26:19;98329.53;;;16.36;38.14
6506;BME280;3286;49.858;8.768;2023-03-23T01:28:47;98336.13;;;15.80;38.77
6506;BME280;3286;49.858;8.768;2023-03-23T01:31:17;98330.75;;;16.41;37.92
6506;BME280;3286;49.858;8.768;2023-03-23T01:33:45;98335.94;;;16.08;38.65
6506;BME280;3286;49.858;8.768;2023-03-23T01:36:14;98336.34;;;15.72;39.46
6506;BME280;3286;49.858;8.768;2023-03-23T01:38:42;98330.09;;;16.45;38.06
6506;BME280;3286;49.858;8.768;2023-03-23T01:41:10;98328.66;;;16.49;37.56
6506;BME280;3286;49.858;8.768;2023-03-23T01:43:58;98314.81;;;16.20;37.73
6506;BME280;3286;49.858;8.768;2023-03-23T01:46:29;98305.44;;;15.50;38.12
6506;BME280;3286;49.858;8.768;2023-03-23T01:48:58;98323.63;;;16.01;38.12
6506;BME280;3286;49.858;8.768;2023-03-23T01:51:26;98325.34;;;16.54;37.28
6506;BME280;3286;49.858;8.768;2023-03-23T01:53:55;98322.38;;;16.24;37.30
6506;BME280;3286;49.858;8.768;2023-03-23T01:56:25;98322.56;;;16.35;37.71
6506;BME280;3286;49.858;8.768;2023-03-23T01:58:56;98326.09;;;15.75;38.77
6506;BME280;3286;49.858;8.768;2023-03-23T02:01:23;98315.88;;;15.92;38.31
6506;BME280;3286;49.858;8.768;2023-03-23T02:03:54;98317.50;;;15.53;39.22
6506;BME280;3286;49.858;8.768;2023-03-23T02:06:23;98316.06;;;15.57;39.48
6506;BME280;3286;49.858;8.768;2023-03-23T02:08:51;98323.03;;;15.78;39.06
6506;BME280;3286;49.858;8.768;2023-03-23T02:11:20;98316.06;;;15.98;38.40
6506;BME280;3286;49.858;8.768;2023-03-23T02:13:47;98306.84;;;15.73;39.21
6506;BME280;3286;49.858;8.768;2023-03-23T02:16:21;98304.00;;;16.61;37.98
6506;BME280;3286;49.858;8.768;2023-03-23T02:19:07;98317.28;;;16.68;37.88
6506;BME280;3286;49.858;8.768;2023-03-23T02:21:54;98318.22;;;16.93;37.54
6506;BME280;3286;49.858;8.768;2023-03-23T02:24:37;98318.56;;;16.58;38.31
6506;BME280;3286;49.858;8.768;2023-03-23T02:27:09;98325.34;;;17.06;37.63
6506;BME280;3286;49.858;8.768;2023-03-23T02:30:08;98330.34;;;16.89;38.31
6506;BME280;3286;49.858;8.768;2023-03-23T02:32:54;98316.78;;;16.91;38.08
6506;BME280;3286;49.858;8.768;2023-03-23T02:35:30;98318.13;;;16.68;38.28
6506;BME280;3286;49.858;8.768;2023-03-23T02:38:01;98310.41;;;16.99;38.11
6506;BME280;3286;49.858;8.768;2023-03-23T02:40:30;98312.69;;;16.43;38.54
6506;BME280;3286;49.858;8.768;2023-03-23T02:43:00;98299.84;;;16.06;38.60
6506;BME280;3286;49.858;8.768;2023-03-23T02:45:29;98297.97;;;16.27;38.08
6506;BME280;3286;49.858;8.768;2023-03-23T02:47:58;98290.97;;;16.39;38.08
6506;BME280;3286;49.858;8.768;2023-03-23T02:50:29;98287.00;;;15.96;39.29
6506;BME280;3286;49.858;8.768;2023-03-23T02:52:58;98283.06;;;16.12;38.45
6506;BME280;3286;49.858;8.768;2023-03-23T02:55:27;98281.66;;;15.96;39.10
6506;BME280;3286;49.858;8.768;2023-03-23T02:57:55;98291.00;;;16.26;38.95
6506;BME280;3286;49.858;8.768;2023-03-23T03:00:22;98293.34;;;16.61;37.62
6506;BME280;3286;49.858;8.768;2023-03-23T03:02:50;98283.28;;;16.63;37.67
6506;BME280;3286;49.858;8.768;2023-03-23T03:05:28;98285.75;;;15.99;39.43
6506;BME280;3286;49.858;8.768;2023-03-23T03:08:10;98286.81;;;16.50;38.48
6506;BME280;3286;49.858;8.768;2023-03-23T03:10:46;98283.72;;;15.54;40.05
6506;BME280;3286;49.858;8.768;2023-03-23T03:13:22;98269.16;;;16.03;39.58
6506;BME280;3286;49.858;8.768;2023-03-23T03:15:56;98289.19;;;16.13;40.17
6506;BME280;3286;49.858;8.768;2023-03-23T03:18:27;98283.34;;;16.88;39.36
6506;BME280;3286;49.858;8.768;2023-03-23T03:20:59;98282.53;;;16.88;39.73
6506;BME280;3286;49.858;8.768;2023-03-23T03:23:29;98276.53;;;16.60;40.30
6506;BME280;3286;49.858;8.768;2023-03-23T03:25:59;98272.72;;;16.36;40.73
6506;BME280;3286;49.858;8.768;2023-03-23T03:28:27;98275.91;;;16.65;40.08
6506;BME280;3286;49.858;8.768;2023-03-23T03:30:56;98271.59;;;16.64;40.06
6506;BME280;3286;49.858;8.768;2023-03-23T03:33:27;98274.63;;;16.22;40.83
6506;BME280;3286;49.858;8.768;2023-03-23T03:35:59;98268.25;;;16.30;41.15
6506;BME280;3286;49.858;8.768;2023-03-23T03:38:28;98267.81;;;16.78;40.42
6506;BME280;3286;49.858;8.768;2023-03-23T03:40:56;98252.50;;;16.21;40.65
6506;BME280;3286;49.858;8.768;2023-03-23T03:43:22;98260.50;;;16.15;41.18
6506;BME280;3286;49.858;8.768;2023-03-23T03:45:49;98267.22;;;16.24;40.98
6506;BME280;3286;49.858;8.768;2023-03-23T03:48:16;98258.06;;;16.00;41.63
6506;BME280;3286;49.858;8.768;2023-03-23T03:50:42;98259.66;;;16.21;41.63
6506;BME280;3286;49.858;8.768;2023-03-23T03:53:10;98254.00;;;16.95;40.53
6506;BME280;3286;49.858;8.768;2023-03-23T03:55:38;98257.91;;;16.54;41.53
6506;BME280;3286;49.858;8.768;2023-03-23T03:58:10;98251.53;;;15.96;43.03
6506;BME280;3286;49.858;8.768;2023-03-23T04:00:37;98246.34;;;16.21;42.82
6506;BME280;3286;49.858;8.768;2023-03-23T04:03:04;98252.13;;;16.04;43.45
6506;BME280;3286;49.858;8.768;2023-03-23T04:05:31;98251.13;;;16.51;41.68
6506;BME280;3286;49.858;8.768;2023-03-23T04:07:58;98250.19;;;16.39;42.43
6506;BME280;3286;49.858;8.768;2023-03-23T04:10:28;98265.94;;;16.47;41.95
6506;BME280;3286;49.858;8.768;2023-03-23T04:12:56;98260.56;;;15.95;42.41
6506;BME280;3286;49.858;8.768;2023-03-23T04:15:23;98260.31;;;16.10;42.93
6506;BME280;3286;49.858;8.768;2023-03-23T04:17:49;98255.69;;;16.44;41.81
6506;BME280;3286;49.858;8.768;2023-03-23T04:20:16;98252.41;;;16.42;41.61
6506;BME280;3286;49.858;8.768;2023-03-23T04:22:43;98250.84;;;16.20;42.14
6506;BME280;3286;49.858;8.768;2023-03-23T04:25:11;98257.69;;;15.89;43.03
6506;BME280;3286;49.858;8.768;2023-03-23T04:27:41;98252.19;;;15.64;43.18
6506;BME280;3286;49.858;8.768;2023-03-23T04:30:12;98264.88;;;15.28;44.16
6506;BME280;3286;49.858;8.768;2023-03-23T04:32:39;98262.59;;;15.79;42.48
6506;BME280;3286;49.858;8.768;2023-03-23T04:35:08;98276.69;;;14.85;43.56
6506;BME280;3286;49.858;8.768;2023-03-23T04:37:36;98265.25;;;14.91;43.57
6506;BME280;3286;49.858;8.768;2023-03-23T04:40:05;98260.97;;;14.97;43.51
6506;BME280;3286;49.858;8.768;2023-03-23T04:42:36;98270.78;;;15.03;43.72
6506;BME280;3286;49.858;8.768;2023-03-23T04:45:06;98266.28;;;15.04;44.12
6506;BME280;3286;49.858;8.768;2023-03-23T04:47:35;98275.06;;;14.98;43.94
6506;BME280;3286;49.858;8.768;2023-03-23T04:50:07;98275.53;;;15.42;43.28
6506;BME280;3286;49.858;8.768;2023-03-23T04:52:34;98276.53;;;15.81;42.35
6506;BME280;3286;49.858;8.768;2023-03-23T04:55:03;98292.47;;;15.07;44.35
6506;BME280;3286;49.858;8.768;2023-03-23T04:57:30;98286.75;;;14.48;45.57
6506;BME280;3286;49.858;8.768;2023-03-23T04:59:57;98280.97;;;14.86;44.92
6506;BME280;3286;49.858;8.768;2023-03-23T05:02:25;98274.34;;;14.62;45.31
6506;BME280;3286;49.858;8.768;2023-03-23T05:04:55;98280.38;;;14.36;46.14
6506;BME280;3286;49.858;8.768;2023-03-23T05:07:22;98279.53;;;14.77;45.23
6506;BME280;3286;49.858;8.768;2023-03-23T05:09:49;98288.38;;;15.04;44.53
6506;BME280;3286;49.858;8.768;2023-03-23T05:12:16;98301.75;;;14.27;46.24
6506;BME280;3286;49.858;8.768;2023-03-23T05:14:42;98299.44;;;14.11;46.80
6506;BME280;3286;49.858;8.768;2023-03-23T05:17:09;98305.22;;;14.63;46.05
6506;BME280;3286;49.858;8.768;2023-03-23T05:19:37;98316.72;;;14.00;47.19
6506;BME280;3286;49.858;8.768;2023-03-23T05:22:06;98313.94;;;13.80;47.87
6506;BME280;3286;49.858;8.768;2023-03-23T05:24:33;98314.50;;;14.74;46.30
6506;BME280;3286;49.858;8.768;2023-03-23T05:26:59;98311.34;;;14.63;46.54
6506;BME280;3286;49.858;8.768;2023-03-23T05:29:28;98317.34;;;14.37;47.06
6506;BME280;3286;49.858;8.768;2023-03-23T05:31:56;98320.97;;;15.40;44.86
6506;BME280;3286;49.858;8.768;2023-03-23T05:34:25;98307.47;;;15.55;44.04
6506;BME280;3286;49.858;8.768;2023-03-23T05:36:53;98309.50;;;15.33;45.13
6506;BME280;3286;49.858;8.768;2023-03-23T05:39:20;98309.78;;;14.76;46.87
6506;BME280;3286;49.858;8.768;2023-03-23T05:41:47;98310.59;;;14.76;47.09
6506;BME280;3286;49.858;8.768;2023-03-23T05:44:14;98306.09;;;14.70;47.07
6506;BME280;3286;49.858;8.768;2023-03-23T05:46:40;98311.53;;;14.20;49.30
6506;BME280;3286;49.858;8.768;2023-03-23T05:49:07;98298.75;;;14.37;50.09
6506;BME280;3286;49.858;8.768;2023-03-23T05:51:34;98316.94;;;13.70;51.67
6506;BME280;3286;49.858;8.768;2023-03-23T05:54:03;98304.31;;;13.72;51.97
6506;BME280;3286;49.858;8.768;2023-03-23T05:56:29;98305.88;;;13.95;51.72
6506;BME280;3286;49.858;8.768;2023-03-23T05:58:56;98320.53;;;14.61;49.23
6506;BME280;3286;49.858;8.768;2023-03-23T06:01:23;98316.16;;;14.88;49.58
6506;BME280;3286;49.858;8.768;2023-03-23T06:03:50;98330.66;;;14.86;48.81
6506;BME280;3286;49.858;8.768;2023-03-23T06:06:19;98335.28;;;13.93;50.74
6506;BME280;3286;49.858;8.768;2023-03-23T06:08:46;98339.28;;;14.11;51.54
6506;BME280;3286;49.858;8.768;2023-03-23T06:11:15;98343.56;;;14.47;50.61
6506;BME280;3286;49.858;8.768;2023-03-23T06:13:41;98344.16;;;14.07;51.22
6506;BME280;3286;49.858;8.768;2023-03-23T06:16:08;98339.81;;;13.99;52.06
6506;BME280;3286;49.858;8.768;2023-03-23T06:18:35;98343.47;;;14.27;51.72
6506;BME280;3286;49.858;8.768;2023-03-23T06:21:02;98345.69;;;14.23;53.47
6506;BME280;3286;49.858;8.768;2023-03-23T06:23:29;98350.31;;;14.43;53.50
6506;BME280;3286;49.858;8.768;2023-03-23T06:25:58;98357.00;;;13.31;56.34
6506;BME280;3286;49.858;8.768;2023-03-23T06:28:27;98367.28;;;12.68;59.68
6506;BME280;3286;49.858;8.768;2023-03-23T06:30:54;98364.91;;;13.68;56.43
6506;BME280;3286;49.858;8.768;2023-03-23T06:33:21;98359.66;;;14.03;54.94
6506;BME280;3286;49.858;8.768;2023-03-23T06:35:48;98377.47;;;13.81;55.69
6506;BME280;3286;49.858;8.768;2023-03-23T06:38:15;98366.91;;;13.44;57.13
6506;BME280;3286;49.858;8.768;2023-03-23T06:40:42;98360.53;;;13.60;56.35
6506;BME280;3286;49.858;8.768;2023-03-23T06:43:12;98354.56;;;13.52;56.02
6506;BME280;3286;49.858;8.768;2023-03-23T06:45:40;98373.06;;;13.08;57.65
6506;BME280;3286;49.858;8.768;2023-03-23T06:48:07;98363.41;;;14.16;54.98
6506;BME280;3286;49.858;8.768;2023-03-23T06:50:33;98375.91;;;13.07;56.72
6506;BME280;3286;49.858;8.768;2023-03-23T06:53:00;98384.53;;;12.79;58.19
6506;BME280;3286;49.858;8.768;2023-03-23T06:55:27;98387.28;;;13.59;56.03
6506;BME280;3286;49.858;8.768;2023-03-23T06:57:53;98392.97;;;12.67;59.25
6506;BME280;3286;49.858;8.768;2023-03-23T07:00:20;98386.13;;;12.58;59.84
6506;BME280;3286;49.858;8.768;2023-03-23T07:02:48;98384.41;;;13.60;56.67
6506;BME280;3286;49.858;8.768;2023-03-23T07:05:15;98394.09;;;13.90;56.68
6506;BME280;3286;49.858;8.768;2023-03-23T07:07:41;98385.31;;;13.46;57.90
6506;BME280;3286;49.858;8.768;2023-03-23T07:10:09;98389.25;;;13.72;56.49
6506;BME280;3286;49.858;8.768;2023-03-23T07:12:36;98395.41;;;14.29;55.33
6506;BME280;3286;49.858;8.768;2023-03-23T07:15:04;98378.72;;;13.85;56.44
6506;BME280;3286;49.858;8.768;2023-03-23T07:17:33;98386.53;;;13.28;57.61
6506;BME280;3286;49.858;8.768;2023-03-23T07:20:01;98384.97;;;13.99;55.87
6506;BME280;3286;49.858;8.768;2023-03-23T07:22:28;98392.00;;;13.85;56.17
6506;BME280;3286;49.858;8.768;2023-03-23T07:24:54;98386.19;;;13.75;56.35
6506;BME280;3286;49.858;8.768;2023-03-23T07:27:21;98394.63;;;13.42;57.68
6506;BME280;3286;49.858;8.768;2023-03-23T07:29:48;98408.81;;;13.12;58.40
6506;BME280;3286;49.858;8.768;2023-03-23T07:32:14;98392.81;;;13.86;56.03
6506;BME280;3286;49.858;8.768;2023-03-23T07:34:41;98392.44;;;13.67;56.56
6506;BME280;3286;49.858;8.768;2023-03-23T07:37:09;98396.44;;;13.78;56.23
6506;BME280;3286;49.858;8.768;2023-03-23T07:39:36;98399.31;;;13.61;57.32
6506;BME280;3286;49.858;8.768;2023-03-23T07:42:03;98408.22;;;12.80;58.95
6506;BME280;3286;49.858;8.768;2023-03-23T07:44:29;98412.88;;;13.30;56.96
6506;BME280;3286;49.858;8.768;2023-03-23T07:46:56;98414.25;;;12.89;57.56
6506;BME280;3286;49.858;8.768;2023-03-23T07:49:22;98420.91;;;14.02;55.23
6506;BME280;3286;49.858;8.768;2023-03-23T07:51:49;98432.06;;;12.95;57.57
6506;BME280;3286;49.858;8.768;2023-03-23T07:54:17;98415.75;;;14.22;54.33
6506;BME280;3286;49.858;8.768;2023-03-23T07:56:44;98424.66;;;14.08;54.06
6506;BME280;3286;49.858;8.768;2023-03-23T07:59:11;98425.91;;;14.12;53.85
6506;BME280;3286;49.858;8.768;2023-03-23T08:01:38;98425.09;;;13.09;57.53
6506;BME280;3286;49.858;8.768;2023-03-23T08:04:05;98421.72;;;13.37;56.47
6506;BME280;3286;49.858;8.768;2023-03-23T08:06:33;98423.22;;;13.61;55.91
6506;BME280;3286;49.858;8.768;2023-03-23T08:09:00;98409.22;;;14.88;52.29
6506;BME280;3286;49.858;8.768;2023-03-23T08:11:34;98416.38;;;14.53;53.59
6506;BME280;3286;49.858;8.768;2023-03-23T08:14:01;98416.44;;;14.02;54.24
6506;BME280;3286;49.858;8.768;2023-03-23T08:16:27;98423.16;;;13.76;54.63
6506;BME280;3286;49.858;8.768;2023-03-23T08:18:54;98434.34;;;13.94;54.78
6506;BME280;3286;49.858;8.768;2023-03-23T08:21:22;98443.19;;;13.79;55.08
6506;BME280;3286;49.858;8.768;2023-03-23T08:23:48;98445.66;;;14.02;54.84
6506;BME280;3286;49.858;8.768;2023-03-23T08:26:15;98447.38;;;13.67;56.03
6506;BME280;3286;49.858;8.768;2023-03-23T08:28:44;98443.84;;;13.81;56.20
6506;BME280;3286;49.858;8.768;2023-03-23T08:31:13;98446.66;;;14.58;53.84
6506;BME280;3286;49.858;8.768;2023-03-23T08:33:40;98461.44;;;14.32;54.50
6506;BME280;3286;49.858;8.768;2023-03-23T08:36:08;98462.31;;;14.46;54.08
6506;BME280;3286;49.858;8.768;2023-03-23T08:38:35;98465.25;;;14.01;55.15
6506;BME280;3286;49.858;8.768;2023-03-23T08:41:04;98470.19;;;14.61;53.88
6506;BME280;3286;49.858;8.768;2023-03-23T08:43:31;98466.63;;;14.19;54.56
6506;BME280;3286;49.858;8.768;2023-03-23T08:45:59;98481.13;;;14.16;54.92
6506;BME280;3286;49.858;8.768;2023-03-23T08:48:26;98479.78;;;12.95;58.27
6506;BME280;3286;49.858;8.768;2023-03-23T08:50:53;98473.59;;;13.55;57.07
6506;BME280;3286;49.858;8.768;2023-03-23T08:53:20;98474.09;;;14.09;55.16
6506;BME280;3286;49.858;8.768;2023-03-23T08:55:47;98485.88;;;13.62;56.12
6506;BME280;3286;49.858;8.768;2023-03-23T08:58:14;98492.63;;;14.02;55.55
6506;BME280;3286;49.858;8.768;2023-03-23T09:00:41;98503.06;;;13.15;57.77
6506;BME280;3286;49.858;8.768;2023-03-23T09:03:09;98499.56;;;13.81;57.41
6506;BME280;3286;49.858;8.768;2023-03-23T09:05:35;98497.00;;;14.38;56.79
6506;BME280;3286;49.858;8.768;2023-03-23T09:08:04;98495.84;;;14.19;57.35
6506;BME280;3286;49.858;8.768;2023-03-23T09:10:31;98481.53;;;13.55;58.89
6506;BME280;3286;49.858;8.768;2023-03-23T09:12:57;98490.59;;;13.45;58.62
6506;BME280;3286;49.858;8.768;2023-03-23T09:15:24;98492.03;;;13.63;58.64
6506;BME280;3286;49.858;8.768;2023-03-23T09:17:52;98488.31;;;14.01;57.93
6506;BME280;3286;49.858;8.768;2023-03-23T09:20:23;98490.53;;;13.97;57.37
6506;BME280;3286;49.858;8.768;2023-03-23T09:22:51;98488.78;;;13.16;59.32
6506;BME280;3286;49.858;8.768;2023-03-23T09:25:20;98491.91;;;13.50;58.56
6506;BME280;3286;49.858;8.768;2023-03-23T09:27:48;98502.44;;;13.65;58.31
6506;BME280;3286;49.858;8.768;2023-03-23T09:30:18;98490.03;;;14.09;56.80
6506;BME280;3286;49.858;8.768;2023-03-23T09:32:46;98496.59;;;14.34;55.69
6506;BME280;3286;49.858;8.768;2023-03-23T09:35:13;98506.22;;;14.14;55.85
6506;BME280;3286;49.858;8.768;2023-03-23T09:37:43;98508.66;;;14.37;55.18
6506;BME280;3286;49.858;8.768;2023-03-23T09:40:13;98506.31;;;14.27;54.56
6506;BME280;3286;49.858;8.768;2023-03-23T09:42:49;98509.81;;;14.28;55.27
6506;BME280;3286;49.858;8.768;2023-03-23T09:45:22;98514.34;;;14.34;54.84
6506;BME280;3286;49.858;8.768;2023-03-23T09:48:03;98512.94;;;14.60;53.74
6506;BME280;3286;49.858;8.768;2023-03-23T09:50:32;98514.91;;;14.73;52.97
6506;BME280;3286;49.858;8.768;2023-03-23T09:53:07;98510.06;;;14.33;54.39
6506;BME280;3286;49.858;8.768;2023-03-23T09:55:37;98508.41;;;15.24;52.25
6506;BME280;3286;49.858;8.768;2023-03-23T09:58:16;98511.91;;;14.89;52.71
6506;BME280;3286;49.858;8.768;2023-03-23T10:00:47;98511.50;;;15.28;52.37
6506;BME280;3286;49.858;8.768;2023-03-23T10:03:17;98517.31;;;15.45;51.62
6506;BME280;3286;49.858;8.768;2023-03-23T10:05:45;98526.81;;;14.84;53.23
6506;BME280;3286;49.858;8.768;2023-03-23T10:08:16;98513.03;;;15.50;50.77
6506;BME280;3286;49.858;8.768;2023-03-23T10:10:48;98513.78;;;14.67;52.26
6506;BME280;3286;49.858;8.768;2023-03-23T10:13:25;98518.59;;;14.78;52.35
6506;BME280;3286;49.858;8.768;2023-03-23T10:15:57;98504.09;;;15.23;50.42
6506;BME280;3286;49.858;8.768;2023-03-23T10:18:29;98515.13;;;15.13;50.94
6506;BME280;3286;49.858;8.768;2023-03-23T10:20:57;98508.09;;;15.47;51.04
6506;BME280;3286;49.858;8.768;2023-03-23T10:23:52;98517.63;;;15.77;51.25
6506;BME280;3286;49.858;8.768;2023-03-23T10:26:33;98508.50;;;16.47;49.68
6506;BME280;3286;49.858;8.768;2023-03-23T10:29:11;98517.53;;;16.12;49.60
6506;BME280;3286;49.858;8.768;2023-03-23T10:31:41;98519.97;;;16.20;49.72
6506;BME280;3286;49.858;8.768;2023-03-23T10:34:12;98521.19;;;16.51;48.93
6506;BME280;3286;49.858;8.768;2023-03-23T10:36:50;98533.09;;;16.62;49.23
6506;BME280;3286;49.858;8.768;2023-03-23T10:39:21;98531.75;;;15.77;50.99
6506;BME280;3286;49.858;8.768;2023-03-23T10:41:49;98548.03;;;15.47;51.49
6506;BME280;3286;49.858;8.768;2023-03-23T10:44:18;98541.69;;;15.97;50.73
6506;BME280;3286;49.858;8.768;2023-03-23T10:46:49;98537.38;;;16.10;51.77
6506;BME280;3286;49.858;8.768;2023-03-23T10:49:22;98536.19;;;16.46;49.60
6506;BME280;3286;49.858;8.768;2023-03-23T10:51:56;98536.59;;;16.22;50.86
6506;BME280;3286;49.858;8.768;2023-03-23T10:54:32;98534.72;;;15.96;51.13
6506;BME280;3286;49.858;8.768;2023-03-23T10:57:00;98539.63;;;15.44;52.06
6506;BME280;3286;49.858;8.768;2023-03-23T10:59:28;98546.84;;;15.57;52.81
6506;BME280;3286;49.858;8.768;2023-03-23T11:02:02;98545.78;;;15.51;52.82
6506;BME280;3286;49.858;8.768;2023-03-23T11:04:37;98533.97;;;14.83;52.90
6506;BME280;3286;49.858;8.768;2023-03-23T11:07:04;98536.56;;;15.47;51.48
6506;BME280;3286;49.858;8.768;2023-03-23T11:09:37;98537.31;;;15.34;51.86
6506;BME280;3286;49.858;8.768;2023-03-23T11:12:04;98548.53;;;14.87;53.60
6506;BME280;3286;49.858;8.768;2023-03-23T11:14:32;98541.16;;;14.89;53.51
6506;BME280;3286;49.858;8.768;2023-03-23T11:17:02;98540.94;;;15.19;52.91
6506;BME280;3286;49.858;8.768;2023-03-23T11:19:31;98537.50;;;14.90;53.39
6506;BME280;3286;49.858;8.768;2023-03-23T11:22:06;98539.25;;;14.76;53.43
6506;BME280;3286;49.858;8.768;2023-03-23T11:24:36;98538.19;;;14.99;52.99
6506;BME280;3286;49.858;8.768;2023-03-23T11:27:03;98544.84;;;15.24;52.02
6506;BME280;3286;49.858;8.768;2023-03-23T11:29:33;98540.66;;;14.72;53.95
6506;BME280;3286;49.858;8.768;2023-03-23T11:32:04;98552.13;;;15.92;50.94
6506;BME280;3286;49.858;8.768;2023-03-23T11:34:34;98549.91;;;15.54;51.20
6506;BME280;3286;49.858;8.768;2023-03-23T11:37:03;98544.19;;;15.15;52.28
6506;BME280;3286;49.858;8.768;2023-03-23T11:39:34;98544.28;;;15.35;51.44
6506;BME280;3286;49.858;8.768;2023-03-23T11:42:13;98543.59;;;15.19;51.70
6506;BME280;3286;49.858;8.768;2023-03-23T11:44:44;98543.84;;;15.80;51.53
6506;BME280;3286;49.858;8.768;2023-03-23T11:47:17;98541.94;;;15.54;51.57
6506;BME280;3286;49.858;8.768;2023-03-23T11:49:52;98538.25;;;15.55;51.29
6506;BME280;3286;49.858;8.768;2023-03-23T11:52:26;98540.03;;;15.96;50.57
6506;BME280;3286;49.858;8.768;2023-03-23T11:55:02;98537.25;;;15.69;51.41
6506;BME280;3286;49.858;8.768;2023-03-23T11:57:31;98541.78;;;15.75;51.43
6506;BME280;3286;49.858;8.768;2023-03-23T11:59:58;98553.63;;;14.89;52.64
6506;BME280;3286;49.858;8.768;2023-03-23T12:05:38;98535.97;;;15.10;52.41
6506;BME280;3286;49.858;8.768;2023-03-23T12:08:29;98539.34;;;14.90;53.19
6506;BME280;3286;49.858;8.768;2023-03-23T12:11:02;98536.63;;;14.83;53.37
6506;BME280;3286;49.858;8.768;2023-03-23T12:13:46;98533.28;;;14.24;54.98
6506;BME280;3286;49.858;8.768;2023-03-23T12:16:25;98525.44;;;14.66;53.94
6506;BME280;3286;49.858;8.768;2023-03-23T12:19:00;98534.78;;;14.84;53.69
6506;BME280;3286;49.858;8.768;2023-03-23T12:21:34;98525.88;;;14.70;53.98
6506;BME280;3286;49.858;8.768;2023-03-23T12:24:09;98537.25;;;14.85;53.61
6506;BME280;3286;49.858;8.768;2023-03-23T12:26:46;98530.66;;;14.53;54.82
6506;BME280;3286;49.858;8.768;2023-03-23T12:29:48;98539.66;;;15.09;53.54
6506;BME280;3286;49.858;8.768;2023-03-23T12:32:33;98521.53;;;14.90;53.72
6506;BME280;3286;49.858;8.768;2023-03-23T12:35:14;98505.22;;;14.43;55.62
6506;BME280;3286;49.858;8.768;2023-03-23T12:37:51;98498.00;;;14.59;55.28
6506;BME280;3286;49.858;8.768;2023-03-23T12:40:35;98487.00;;;14.97;53.80
6506;BME280;3286;49.858;8.768;2023-03-23T12:43:10;98480.84;;;15.39;53.16
6506;BME280;3286;49.858;8.768;2023-03-23T12:45:52;98474.22;;;15.90;52.35
6506;BME280;3286;49.858;8.768;2023-03-23T12:48:23;98466.28;;;16.44;50.44
6506;BME280;3286;49.858;8.768;2023-03-23T12:51:13;98469.34;;;16.14;51.44
6506;BME280;3286;49.858;8.768;2023-03-23T12:53:49;98461.28;;;17.40;48.57
6506;BME280;3286;49.858;8.768;2023-03-23T12:56:19;98442.72;;;17.13;48.90
6506;BME280;3286;49.858;8.768;2023-03-23T12:58:51;98458.25;;;17.36;48.04
6506;BME280;3286;49.858;8.768;2023-03-23T13:01:24;98464.91;;;17.91;47.34
6506;BME280;3286;49.858;8.768;2023-03-23T13:03:56;98453.66;;;17.83;47.17
6506;BME280;3286;49.858;8.768;2023-03-23T13:06:29;98447.44;;;18.21;45.92
6506;BME280;3286;49.858;8.768;2023-03-23T13:09:00;98465.78;;;17.46;47.90
6506;BME280;3286;49.858;8.768;2023-03-23T13:11:32;98467.47;;;17.34;47.33
6506;BME280;3286;49.858;8.768;2023-03-23T13:14:13;98454.69;;;16.97;48.73
6506;BME280;3286;49.858;8.768;2023-03-23T13:16:48;98467.06;;;16.44;49.10
6506;BME280;3286;49.858;8.768;2023-03-23T13:19:22;98460.47;;;16.74;48.88
6506;BME280;3286;49.858;8.768;2023-03-23T13:21:57;98457.81;;;15.11;52.01
6506;BME280;3286;49.858;8.768;2023-03-23T13:24:28;98450.06;;;16.45;49.29
6506;BME280;3286;49.858;8.768;2023-03-23T13:26:56;98446.09;;;16.82;48.54
6506;BME280;3286;49.858;8.768;2023-03-23T13:29:24;98449.03;;;16.33;49.14
6506;BME280;3286;49.858;8.768;2023-03-23T13:32:05;98458.31;;;15.34;51.26
6506;BME280;3286;49.858;8.768;2023-03-23T13:34:32;98451.94;;;15.29;52.19
6506;BME280;3286;49.858;8.768;2023-03-23T13:37:00;98435.03;;;15.57;51.47
6506;BME280;3286;49.858;8.768;2023-03-23T13:39:30;98428.34;;;16.21;49.96
6506;BME280;3286;49.858;8.768;2023-03-23T13:42:03;98438.34;;;15.86;50.73